createdAt,value
2023-03-18T00:00:43.553Z,12.72
2023-03-18T00:05:45.533Z,12.74
2023-03-18T00:10:50.863Z,12.75
2023-03-18T00:15:52.235Z,12.72
2023-03-18T00:20:53.990Z,12.65
2023-03-18T00:25:57.466Z,12.68
2023-03-18T00:31:08.946Z,12.72
2023-03-18T00:36:13.672Z,12.75
2023-03-18T00:41:16.031Z,12.75
2023-03-18T00:46:27.450Z,12.65
2023-03-18T00:51:32.259Z,12.66
2023-03-18T00:56:36.222Z,12.70
2023-03-18T01:01:38.955Z,12.66
2023-03-18T01:06:40.564Z,12.55
2023-03-18T01:11:42.027Z,12.44
2023-03-18T01:16:43.557Z,12.34
2023-03-18T01:21:45.000Z,12.11
2023-03-18T01:26:47.003Z,12.16
2023-03-18T01:31:48.749Z,12.09
2023-03-18T01:36:50.200Z,11.96
2023-03-18T01:41:51.924Z,11.92
2023-03-18T01:46:53.935Z,11.83
2023-03-18T01:52:02.779Z,11.75
2023-03-18T01:57:06.879Z,11.69
2023-03-18T02:02:11.386Z,11.66
2023-03-18T02:07:19.677Z,11.63
2023-03-18T02:12:50.776Z,11.63
2023-03-18T02:17:58.840Z,11.63
2023-03-18T02:23:12.285Z,11.69
2023-03-18T02:28:20.177Z,11.61
2023-03-18T02:33:26.131Z,11.59
2023-03-18T02:38:27.493Z,11.53
2023-03-18T02:43:31.835Z,11.51
2023-03-18T02:48:37.577Z,11.37
2023-03-18T02:53:39.262Z,11.39
2023-03-18T02:58:41.761Z,11.44
2023-03-18T03:03:43.806Z,11.42
2023-03-18T03:08:45.304Z,11.44
2023-03-18T03:13:46.815Z,11.45
2023-03-18T03:18:48.200Z,11.43
2023-03-18T03:23:50.085Z,11.33
2023-03-18T03:28:51.610Z,11.07
2023-03-18T03:33:53.195Z,11.10
2023-03-18T03:38:55.390Z,11.07
2023-03-18T03:43:56.860Z,10.94
2023-03-18T03:48:58.240Z,11.02
2023-03-18T03:53:59.626Z,11.00
2023-03-18T03:59:01.423Z,11.11
2023-03-18T04:04:03.967Z,11.11
2023-03-18T04:09:05.718Z,11.14
2023-03-18T04:14:08.008Z,11.14
2023-03-18T04:19:10.052Z,11.16
2023-03-18T04:24:11.640Z,11.09
2023-03-18T04:29:13.252Z,10.96
2023-03-18T04:34:14.674Z,10.95
2023-03-18T04:39:16.121Z,10.85
2023-03-18T04:44:17.483Z,10.83
2023-03-18T04:49:19.648Z,10.71
2023-03-18T04:54:21.502Z,10.78
2023-03-18T04:59:23.011Z,10.84
2023-03-18T05:04:24.349Z,10.88
2023-03-18T05:09:25.732Z,10.89
2023-03-18T05:14:28.816Z,10.92
2023-03-18T05:19:30.513Z,10.91
2023-03-18T05:24:31.878Z,10.94
2023-03-18T05:29:33.357Z,10.95
2023-03-18T05:34:37.551Z,10.95
2023-03-18T05:39:38.945Z,10.93
2023-03-18T05:44:40.725Z,11.00
2023-03-18T05:49:42.333Z,11.03
2023-03-18T05:54:46.993Z,11.05
2023-03-18T05:59:48.585Z,11.07
2023-03-18T06:04:50.005Z,10.97
2023-03-18T06:09:52.209Z,10.99
2023-03-18T06:14:54.682Z,11.02
2023-03-18T06:19:56.872Z,11.08
2023-03-18T06:24:58.725Z,11.10
2023-03-18T06:30:02.927Z,11.10
2023-03-18T06:35:05.265Z,11.10
2023-03-18T06:40:08.186Z,11.05
2023-03-18T06:45:10.095Z,11.06
2023-03-18T06:50:11.795Z,11.07
2023-03-18T06:55:13.197Z,11.03
2023-03-18T07:00:15.177Z,11.01
2023-03-18T07:05:17.178Z,10.99
2023-03-18T07:10:22.552Z,10.97
2023-03-18T07:15:24.400Z,10.99
2023-03-18T07:20:25.842Z,11.02
2023-03-18T07:25:27.181Z,11.15
2023-03-18T07:30:28.811Z,11.27
2023-03-18T07:35:30.417Z,11.34
2023-03-18T07:40:32.371Z,11.42
2023-03-18T07:45:34.615Z,11.56
2023-03-18T07:50:36.428Z,11.79
2023-03-18T07:55:38.491Z,11.90
2023-03-18T08:00:39.862Z,11.93
2023-03-18T08:05:41.246Z,12.08
2023-03-18T08:10:42.893Z,12.18
2023-03-18T08:15:44.448Z,12.33
2023-03-18T08:20:46.010Z,12.45
2023-03-18T08:25:49.612Z,12.57
2023-03-18T08:30:55.954Z,12.80
2023-03-18T08:35:59.272Z,13.01
2023-03-18T08:41:00.961Z,13.24
2023-03-18T08:46:02.623Z,13.35
2023-03-18T08:51:05.339Z,13.62
2023-03-18T08:56:07.641Z,13.84
2023-03-18T09:01:11.711Z,13.98
2023-03-18T09:06:13.530Z,14.22
2023-03-18T09:11:14.905Z,14.48
2023-03-18T09:16:17.372Z,14.72
2023-03-18T09:21:19.105Z,14.83
2023-03-18T09:26:20.725Z,14.88
2023-03-18T09:31:22.186Z,15.19
2023-03-18T09:36:23.842Z,15.62
2023-03-18T09:42:03.404Z,15.80
2023-03-18T09:47:36.179Z,16.04
2023-03-18T09:53:04.086Z,16.24
2023-03-18T09:58:17.956Z,16.36
2023-03-18T10:03:33.755Z,16.43
2023-03-18T10:08:47.792Z,16.56
2023-03-18T10:14:16.525Z,16.89
2023-03-18T10:19:17.986Z,17.13
2023-03-18T10:24:38.329Z,17.47
2023-03-18T10:29:54.636Z,17.94
2023-03-18T10:35:03.880Z,18.35
2023-03-18T10:40:17.642Z,18.68
2023-03-18T10:45:24.092Z,19.00
2023-03-18T10:50:54.492Z,19.15
2023-03-18T10:56:08.378Z,19.47
2023-03-18T11:01:17.141Z,19.49
2023-03-18T11:06:25.202Z,19.62
2023-03-18T11:11:34.749Z,19.73
2023-03-18T11:16:42.469Z,20.03
2023-03-18T11:21:44.884Z,20.07
2023-03-18T11:26:57.206Z,20.13
2023-03-18T11:32:01.219Z,19.91
2023-03-18T11:37:05.780Z,20.27
2023-03-18T11:42:21.721Z,20.45
2023-03-18T11:47:28.558Z,20.60
2023-03-18T11:52:40.092Z,20.60
2023-03-18T11:57:59.195Z,20.97
2023-03-18T12:03:18.559Z,21.34
2023-03-18T12:08:47.858Z,21.51
2023-03-18T12:14:25.720Z,21.54
2023-03-18T12:19:56.024Z,21.37
2023-03-18T12:25:17.469Z,20.99
2023-03-18T12:30:36.632Z,20.84
2023-03-18T12:35:54.443Z,20.88
2023-03-18T12:41:01.842Z,20.95
2023-03-18T12:46:17.260Z,21.18
2023-03-18T12:51:26.294Z,21.20
2023-03-18T12:56:30.093Z,21.01
2023-03-18T13:01:49.234Z,20.84
2023-03-18T13:07:15.697Z,21.04
2023-03-18T13:12:38.730Z,21.19
2023-03-18T13:17:44.569Z,21.43
2023-03-18T13:23:03.796Z,21.67
2023-03-18T13:28:36.570Z,21.48
2023-03-18T13:33:41.226Z,22.05
2023-03-18T13:39:08.344Z,21.56
2023-03-18T13:44:17.323Z,21.92
2023-03-18T13:49:23.811Z,22.11
2023-03-18T13:54:34.841Z,21.97
2023-03-18T13:59:36.169Z,21.89
2023-03-18T14:04:51.335Z,21.87
2023-03-18T14:10:17.304Z,21.80
2023-03-18T14:15:36.375Z,21.45
2023-03-18T14:20:41.772Z,21.27
2023-03-18T14:25:44.597Z,21.32
2023-03-18T14:30:58.412Z,21.19
2023-03-18T14:36:10.230Z,21.34
2023-03-18T14:41:21.313Z,21.41
2023-03-18T14:46:27.142Z,20.97
2023-03-18T14:51:32.218Z,20.99
2023-03-18T14:56:40.720Z,20.94
2023-03-18T15:01:47.965Z,20.54
2023-03-18T15:06:50.759Z,20.63
2023-03-18T15:11:52.422Z,20.41
2023-03-18T15:16:56.449Z,20.31
2023-03-18T15:22:04.409Z,20.06
2023-03-18T15:27:15.185Z,19.85
2023-03-18T15:32:25.937Z,20.00
2023-03-18T15:37:42.474Z,19.73
2023-03-18T15:42:45.432Z,19.58
2023-03-18T15:47:47.846Z,19.47
2023-03-18T15:52:49.288Z,19.25
2023-03-18T15:57:53.319Z,19.22
2023-03-18T16:02:54.790Z,19.27
2023-03-18T16:07:56.884Z,19.29
2023-03-18T16:13:02.138Z,19.37
2023-03-18T16:18:03.481Z,19.61
2023-03-18T16:23:05.548Z,19.92
2023-03-18T16:28:07.757Z,20.03
2023-03-18T16:33:16.547Z,19.74
2023-03-18T16:38:17.968Z,19.09
2023-03-18T16:43:22.132Z,19.10
2023-03-18T16:48:23.681Z,19.21
2023-03-18T16:53:28.207Z,19.58
2023-03-18T16:58:33.725Z,19.85
2023-03-18T17:03:36.124Z,19.48
2023-03-18T17:08:38.308Z,19.36
2023-03-18T17:13:40.206Z,19.46
2023-03-18T17:18:41.553Z,19.59
2023-03-18T17:23:42.928Z,19.59
2023-03-18T17:28:47.512Z,19.57
2023-03-18T17:33:48.821Z,19.46
2023-03-18T17:38:56.427Z,19.33
2023-03-18T17:43:58.056Z,19.12
2023-03-18T17:48:59.468Z,18.91
2023-03-18T17:54:02.160Z,18.69
2023-03-18T17:59:05.883Z,18.42
2023-03-18T18:04:13.914Z,18.20
2023-03-18T18:09:15.488Z,17.99
2023-03-18T18:14:27.124Z,17.78
2023-03-18T18:19:28.861Z,17.56
2023-03-18T18:24:33.154Z,17.30
2023-03-18T18:29:35.133Z,17.08
2023-03-18T18:34:36.683Z,16.88
2023-03-18T18:39:38.012Z,16.66
2023-03-18T18:44:40.142Z,16.47
2023-03-18T18:49:41.812Z,16.16
2023-03-18T18:54:43.250Z,16.11
2023-03-18T18:59:44.576Z,15.94
2023-03-18T19:04:46.464Z,15.83
2023-03-18T19:09:47.828Z,15.69
2023-03-18T19:14:49.209Z,15.48
2023-03-18T19:19:52.693Z,15.33
2023-03-18T19:24:54.135Z,15.32
2023-03-18T19:29:58.434Z,15.24
2023-03-18T19:35:00.178Z,15.10
2023-03-18T19:40:14.509Z,14.95
2023-03-18T19:45:16.698Z,14.83
2023-03-18T19:50:20.983Z,14.49
2023-03-18T19:55:23.751Z,14.56
2023-03-18T20:00:26.051Z,14.51
2023-03-18T20:05:27.630Z,14.40
2023-03-18T20:10:29.845Z,14.40
2023-03-18T20:15:31.583Z,14.39
2023-03-18T20:20:33.485Z,14.34
2023-03-18T20:25:38.974Z,14.09
2023-03-18T20:30:40.889Z,13.98
2023-03-18T20:35:44.542Z,13.98
2023-03-18T20:40:49.318Z,13.94
2023-03-18T20:45:51.836Z,13.84
2023-03-18T20:50:54.896Z,13.73
2023-03-18T20:55:56.428Z,13.71
2023-03-18T21:00:57.902Z,13.77
2023-03-18T21:06:03.382Z,13.76
2023-03-18T21:11:05.272Z,13.77
2023-03-18T21:16:11.968Z,13.73
2023-03-18T21:21:24.864Z,13.76
2023-03-18T21:26:26.590Z,13.74
2023-03-18T21:31:33.030Z,13.63
2023-03-18T21:36:34.436Z,13.39
2023-03-18T21:41:36.207Z,13.49
2023-03-18T21:46:37.606Z,13.51
2023-03-18T21:51:40.319Z,13.48
2023-03-18T21:56:41.843Z,13.46
2023-03-18T22:01:43.220Z,13.55
2023-03-18T22:06:44.596Z,13.60
2023-03-18T22:11:45.995Z,13.50
2023-03-18T22:16:47.379Z,13.56
2023-03-18T22:21:48.726Z,13.61
2023-03-18T22:26:50.391Z,13.66
2023-03-18T22:31:52.032Z,13.68
2023-03-18T22:36:53.342Z,13.75
2023-03-18T22:41:54.780Z,13.74
2023-03-18T22:46:56.356Z,13.76
2023-03-18T22:51:57.736Z,13.75
2023-03-18T22:56:59.058Z,13.71
2023-03-18T23:02:00.455Z,13.62
2023-03-18T23:07:01.872Z,13.59
2023-03-18T23:12:03.381Z,13.65
2023-03-18T23:17:04.763Z,13.66
2023-03-18T23:22:06.445Z,13.66
2023-03-18T23:27:08.133Z,13.67
2023-03-18T23:32:10.546Z,13.71
2023-03-18T23:37:12.738Z,13.71
2023-03-18T23:42:15.418Z,13.74
2023-03-18T23:47:16.946Z,13.76
2023-03-18T23:52:18.282Z,13.74
2023-03-18T23:57:19.652Z,13.72
